Time;durP1;ratioP1;P1;durP2;ratioP2;P2;SDS_P1;SDS_P2;PMS_P1;PMS_P2;Temp;Humidity;BMP_temperature;BMP_pressure;BME280_temperature;BME280_humidity;BME280_pressure;Samples;Min_cycle;Max_cycle;Signal;HPM_P1;HPM_P2
2022/10/05 00:00:25;;;;;;;9.27;2.83;;;;;;;;;;5036883;28;20421;-22
2022/10/05 00:02:53;;;;;;;10.60;3.78;;;;;;;;;;5036420;28;20045;-22
2022/10/05 00:05:19;;;;;;;14.80;4.35;;;;;;;;;;5036467;28;20434;-23
2022/10/05 00:07:45;;;;;;;12.98;3.80;;;;;;;;;;5036385;28;20033;-23
2022/10/05 00:10:14;;;;;;;17.95;3.97;;;;;;;;;;5036428;28;20029;-22
2022/10/05 00:12:40;;;;;;;14.95;3.60;;;;;;;;;;5036551;28;20381;-24
2022/10/05 00:15:10;;;;;;;11.02;3.80;;;;;;;;;;5036321;28;20057;-28
2022/10/05 00:17:36;;;;;;;7.20;3.30;;;;;;;;;;5036407;28;20059;-22
2022/10/05 00:20:13;;;;;;;16.35;4.13;;;;;;;;;;5035126;28;20084;-22
2022/10/05 00:22:39;;;;;;;12.23;3.55;;;;;;;;;;5035475;28;20040;-24
2022/10/05 00:25:12;;;;;;;6.72;3.80;;;;;;;;;;5036386;28;20086;-22
2022/10/05 00:27:38;;;;;;;6.28;2.80;;;;;;;;;;5036115;28;20057;-22
2022/10/05 00:30:15;;;;;;;10.90;3.80;;;;;;;;;;5036303;28;20144;-22
2022/10/05 00:32:41;;;;;;;10.10;3.30;;;;;;;;;;5036236;28;20446;-25
2022/10/05 00:35:08;;;;;;;11.52;3.85;;;;;;;;;;5035916;28;20032;-25
2022/10/05 00:37:34;;;;;;;8.75;3.30;;;;;;;;;;5036056;28;20358;-22
2022/10/05 00:40:00;;;;;;;13.27;4.50;;;;;;;;;;5036101;28;20045;-22
2022/10/05 00:42:39;;;;;;;10.35;4.03;;;;;;;;;;5035682;28;20029;-22
2022/10/05 00:45:29;;;;;;;10.75;3.10;;;;;;;;;;5036056;28;20335;-23
2022/10/05 00:48:07;;;;;;;7.80;2.80;;;;;;;;;;5035690;28;20033;-24
2022/10/05 00:50:39;;;;;;;11.45;2.85;;;;;;;;;;5036174;28;20100;-24
2022/10/05 00:53:24;;;;;;;4.75;3.28;;;;;;;;;;5035794;28;20051;-22
2022/10/05 00:56:04;;;;;;;11.20;3.85;;;;;;;;;;5035529;28;20029;-23
2022/10/05 00:58:37;;;;;;;6.28;3.65;;;;;;;;;;5035421;28;20088;-24
2022/10/05 01:01:14;;;;;;;8.70;3.33;;;;;;;;;;5035485;28;20025;-22
2022/10/05 01:03:55;;;;;;;9.55;3.60;;;;;;;;;;5035326;28;20049;-22
2022/10/05 01:06:27;;;;;;;10.82;4.22;;;;;;;;;;5035362;28;20021;-22
2022/10/05 01:08:57;;;;;;;11.18;4.20;;;;;;;;;;5035293;28;20416;-23
2022/10/05 01:11:29;;;;;;;6.65;3.28;;;;;;;;;;5035520;28;20342;-22
2022/10/05 01:14:07;;;;;;;7.45;3.42;;;;;;;;;;5035156;28;20132;-25
2022/10/05 01:16:37;;;;;;;9.88;3.25;;;;;;;;;;5035432;28;20413;-25
2022/10/05 01:19:06;;;;;;;6.70;3.83;;;;;;;;;;5035058;28;20061;-23
2022/10/05 01:21:37;;;;;;;10.50;2.88;;;;;;;;;;5035319;28;20041;-24
2022/10/05 01:24:12;;;;;;;7.85;3.22;;;;;;;;;;5035269;28;20029;-22
2022/10/05 01:26:56;;;;;;;7.07;3.72;;;;;;;;;;5034992;28;20060;-22
2022/10/05 01:29:28;;;;;;;9.35;2.80;;;;;;;;;;5035275;28;20485;-22
2022/10/05 01:32:07;;;;;;;8.35;2.92;;;;;;;;;;5034540;28;20466;-23
2022/10/05 01:34:36;;;;;;;14.32;4.18;;;;;;;;;;5034798;28;20111;-22
2022/10/05 01:37:12;;;;;;;8.98;4.45;;;;;;;;;;5034856;28;20030;-22
2022/10/05 01:39:41;;;;;;;17.40;3.97;;;;;;;;;;5034838;28;20458;-28
2022/10/05 01:42:13;;;;;;;6.55;2.95;;;;;;;;;;5034668;28;20062;-21
2022/10/05 01:44:48;;;;;;;14.77;3.78;;;;;;;;;;5035316;28;20021;-24
2022/10/05 01:47:21;;;;;;;5.35;2.75;;;;;;;;;;5035013;28;20017;-22
2022/10/05 01:49:47;;;;;;;5.90;3.10;;;;;;;;;;5035242;28;20064;-22
2022/10/05 01:52:17;;;;;;;9.90;3.45;;;;;;;;;;5034875;28;20045;-22
2022/10/05 01:55:01;;;;;;;5.70;3.30;;;;;;;;;;5034885;28;20025;-22
2022/10/05 01:57:48;;;;;;;8.95;2.97;;;;;;;;;;5034538;28;20063;-23
2022/10/05 02:00:16;;;;;;;7.50;2.47;;;;;;;;;;5024399;28;20033;-23
2022/10/05 02:02:52;;;;;;;7.00;2.90;;;;;;;;;;5034204;28;20057;-23
2022/10/05 02:05:24;;;;;;;9.25;3.80;;;;;;;;;;5034822;28;20030;-22
2022/10/05 02:08:07;;;;;;;6.95;2.78;;;;;;;;;;5035040;28;20110;-25
2022/10/05 02:10:39;;;;;;;12.23;3.38;;;;;;;;;;5034769;28;20033;-23
2022/10/05 02:13:15;;;;;;;6.53;3.65;;;;;;;;;;5034670;28;20357;-23
2022/10/05 02:15:45;;;;;;;7.20;2.83;;;;;;;;;;5034293;28;20026;-22
2022/10/05 02:18:14;;;;;;;12.85;3.65;;;;;;;;;;5034668;28;20061;-22
2022/10/05 02:20:42;;;;;;;9.10;2.83;;;;;;;;;;5034369;28;20079;-23
2022/10/05 02:23:10;;;;;;;9.98;4.15;;;;;;;;;;5034235;28;20029;-23
2022/10/05 02:25:38;;;;;;;10.07;3.83;;;;;;;;;;5034879;28;20025;-24
2022/10/05 02:28:07;;;;;;;7.43;3.13;;;;;;;;;;5034276;28;20515;-25
2022/10/05 02:30:37;;;;;;;5.03;3.08;;;;;;;;;;5034798;28;20037;-27
2022/10/05 02:33:10;;;;;;;4.13;2.83;;;;;;;;;;5034531;28;20362;-23
2022/10/05 02:35:36;;;;;;;10.13;3.08;;;;;;;;;;5034231;28;20120;-22
2022/10/05 02:38:11;;;;;;;6.78;3.00;;;;;;;;;;5034145;28;20025;-21
2022/10/05 02:40:57;;;;;;;8.98;4.07;;;;;;;;;;5034183;28;20022;-22
2022/10/05 02:43:29;;;;;;;8.45;3.28;;;;;;;;;;5035377;28;20029;-22
2022/10/05 02:46:01;;;;;;;5.00;2.97;;;;;;;;;;5038037;28;20075;-22
2022/10/05 02:48:47;;;;;;;6.65;2.97;;;;;;;;;;5037948;28;20036;-24
2022/10/05 02:51:25;;;;;;;7.65;4.07;;;;;;;;;;5038472;28;20030;-27
2022/10/05 02:53:57;;;;;;;7.32;3.45;;;;;;;;;;5038078;28;20032;-23
2022/10/05 02:56:52;;;;;;;7.47;3.40;;;;;;;;;;5037810;28;20029;-25
2022/10/05 02:59:37;;;;;;;6.95;3.13;;;;;;;;;;5025092;28;20045;-23
2022/10/05 03:02:06;;;;;;;11.20;3.90;;;;;;;;;;5037570;28;20049;-22
2022/10/05 03:04:38;;;;;;;6.97;2.78;;;;;;;;;;5037494;28;20120;-21
2022/10/05 03:07:11;;;;;;;5.40;3.13;;;;;;;;;;5037607;28;20075;-23
2022/10/05 03:10:04;;;;;;;4.38;2.30;;;;;;;;;;5037512;28;20435;-24
2022/10/05 03:12:36;;;;;;;8.38;3.75;;;;;;;;;;5034710;28;20033;-22
2022/10/05 03:15:14;;;;;;;3.67;2.55;;;;;;;;;;5037445;28;20048;-23
2022/10/05 03:17:45;;;;;;;7.72;3.08;;;;;;;;;;5037314;28;20095;-24
2022/10/05 03:20:19;;;;;;;6.75;2.65;;;;;;;;;;5037703;28;20105;-27
2022/10/05 03:22:50;;;;;;;7.82;3.03;;;;;;;;;;5037284;28;20446;-22
2022/10/05 03:25:25;;;;;;;5.18;2.55;;;;;;;;;;5037520;28;20036;-22
2022/10/05 03:27:54;;;;;;;4.03;3.00;;;;;;;;;;5037205;28;20498;-23
2022/10/05 03:30:22;;;;;;;5.90;3.65;;;;;;;;;;5037184;28;20025;-22
2022/10/05 03:33:07;;;;;;;9.75;2.72;;;;;;;;;;5037004;28;20044;-27
2022/10/05 03:35:52;;;;;;;8.63;3.30;;;;;;;;;;5037102;28;20030;-22
2022/10/05 03:38:36;;;;;;;6.20;2.83;;;;;;;;;;5037212;28;20509;-25
2022/10/05 03:41:24;;;;;;;6.82;2.92;;;;;;;;;;5036920;28;20083;-23
2022/10/05 03:43:50;;;;;;;5.22;2.55;;;;;;;;;;5036752;28;20029;-23
2022/10/05 03:46:34;;;;;;;4.30;2.55;;;;;;;;;;5036827;28;20080;-25
2022/10/05 03:49:13;;;;;;;3.95;2.78;;;;;;;;;;5037075;28;20029;-23
2022/10/05 03:51:43;;;;;;;10.50;3.30;;;;;;;;;;5037013;28;20473;-22
2022/10/05 03:54:16;;;;;;;6.95;2.90;;;;;;;;;;5036724;28;20064;-26
2022/10/05 03:56:48;;;;;;;7.72;3.47;;;;;;;;;;5037200;28;20509;-22
2022/10/05 03:59:20;;;;;;;3.67;2.67;;;;;;;;;;5036453;28;20033;-22
2022/10/05 04:01:46;;;;;;;;;;;;;;;;;;5037292;28;20366;-29
2022/10/05 04:04:17;;;;;;;5.75;2.90;;;;;;;;;;5036294;28;19991;-22
2022/10/05 04:06:46;;;;;;;11.38;3.53;;;;;;;;;;5035466;28;20021;-23
2022/10/05 04:09:23;;;;;;;3.47;2.80;;;;;;;;;;5036637;28;20026;-27
2022/10/05 04:12:08;;;;;;;9.32;4.05;;;;;;;;;;5036454;28;20102;-24
2022/10/05 04:14:38;;;;;;;8.10;3.30;;;;;;;;;;5036300;28;20112;-22
2022/10/05 04:17:24;;;;;;;5.30;2.63;;;;;;;;;;5036126;28;20053;-27
2022/10/05 04:19:58;;;;;;;7.70;2.92;;;;;;;;;;5035149;28;20041;-26
2022/10/05 04:22:44;;;;;;;6.93;2.72;;;;;;;;;;5035939;28;20419;-25
2022/10/05 04:25:16;;;;;;;4.55;2.75;;;;;;;;;;5035344;28;20037;-24
2022/10/05 04:27:59;;;;;;;9.30;3.13;;;;;;;;;;5035470;28;20029;-24
2022/10/05 04:30:25;;;;;;;5.65;2.78;;;;;;;;;;5036254;28;20044;-26
2022/10/05 04:32:58;;;;;;;3.65;2.35;;;;;;;;;;5035807;28;20049;-24
2022/10/05 04:35:39;;;;;;;8.65;3.65;;;;;;;;;;5036156;28;20037;-23
2022/10/05 04:38:15;;;;;;;7.55;3.17;;;;;;;;;;5036078;28;20030;-23
2022/10/05 04:40:41;;;;;;;4.13;2.65;;;;;;;;;;5036067;28;20026;-25
2022/10/05 04:43:26;;;;;;;6.25;3.40;;;;;;;;;;5035973;28;20048;-27
2022/10/05 04:46:10;;;;;;;8.82;3.20;;;;;;;;;;5035970;28;20056;-24
2022/10/05 04:48:56;;;;;;;6.88;2.92;;;;;;;;;;5035911;28;20437;-25
2022/10/05 04:51:26;;;;;;;6.55;2.88;;;;;;;;;;5035886;28;20083;-24
2022/10/05 04:54:02;;;;;;;12.25;3.85;;;;;;;;;;5035690;28;20091;-23
2022/10/05 04:56:47;;;;;;;7.13;3.15;;;;;;;;;;5035770;28;20476;-24
2022/10/05 04:59:16;;;;;;;3.58;2.70;;;;;;;;;;5035371;28;20056;-23
2022/10/05 05:01:45;;;;;;;11.23;2.47;;;;;;;;;;5035591;28;20067;-23
2022/10/05 05:04:22;;;;;;;5.40;2.90;;;;;;;;;;5035129;28;20060;-24
2022/10/05 05:07:03;;;;;;;7.25;3.05;;;;;;;;;;5034951;28;20029;-23
2022/10/05 05:09:29;;;;;;;6.22;3.03;;;;;;;;;;5034964;28;20029;-22
2022/10/05 05:12:08;;;;;;;6.00;2.97;;;;;;;;;;5035330;28;20056;-24
2022/10/05 05:14:43;;;;;;;7.60;3.72;;;;;;;;;;5035669;28;20096;-21
2022/10/05 05:17:24;;;;;;;11.43;2.78;;;;;;;;;;5035442;28;20041;-23
2022/10/05 05:19:51;;;;;;;;;;;;;;;;;;5035631;28;20033;-23
2022/10/05 05:22:27;;;;;;;14.40;2.90;;;;;;;;;;5035771;28;19909;-27
2022/10/05 05:25:12;;;;;;;5.55;3.22;;;;;;;;;;5035532;28;20044;-25
2022/10/05 05:27:41;;;;;;;6.45;2.88;;;;;;;;;;5035183;28;20029;-28
2022/10/05 05:30:22;;;;;;;4.70;2.53;;;;;;;;;;5035070;28;20509;-26
2022/10/05 05:32:51;;;;;;;11.43;2.92;;;;;;;;;;5035100;28;20033;-24
2022/10/05 05:35:25;;;;;;;12.05;3.05;;;;;;;;;;5034758;28;20033;-25
2022/10/05 05:38:10;;;;;;;9.55;2.40;;;;;;;;;;5034880;28;20028;-22
2022/10/05 05:40:42;;;;;;;17.15;3.17;;;;;;;;;;5034755;28;20108;-23
2022/10/05 05:43:22;;;;;;;27.67;4.47;;;;;;;;;;5034260;28;20105;-24
2022/10/05 05:45:53;;;;;;;9.43;3.90;;;;;;;;;;5034442;28;20024;-23
2022/10/05 05:48:22;;;;;;;6.03;3.03;;;;;;;;;;5034339;28;20462;-24
2022/10/05 05:51:02;;;;;;;11.02;2.80;;;;;;;;;;5034431;28;20030;-23
2022/10/05 05:53:31;;;;;;;6.65;2.83;;;;;;;;;;5034512;28;20379;-23
2022/10/05 05:56:06;;;;;;;10.57;3.30;;;;;;;;;;5034221;28;20025;-25
2022/10/05 05:58:36;;;;;;;15.85;3.95;;;;;;;;;;5034362;28;20444;-25
2022/10/05 06:01:10;;;;;;;14.05;3.05;;;;;;;;;;5034174;28;20463;-26
2022/10/05 06:03:54;;;;;;;13.43;3.90;;;;;;;;;;5034001;28;20045;-23
2022/10/05 06:06:23;;;;;;;12.38;2.92;;;;;;;;;;5034675;28;20026;-24
2022/10/05 06:08:52;;;;;;;11.55;3.67;;;;;;;;;;5034563;28;20100;-23
2022/10/05 06:11:21;;;;;;;14.25;3.05;;;;;;;;;;5034464;28;20045;-30
2022/10/05 06:13:48;;;;;;;16.35;3.15;;;;;;;;;;5034157;28;20026;-23
2022/10/05 06:16:23;;;;;;;11.55;3.20;;;;;;;;;;5034350;28;20371;-23
2022/10/05 06:18:56;;;;;;;16.15;3.33;;;;;;;;;;5037858;28;20500;-22
2022/10/05 06:21:37;;;;;;;12.80;2.90;;;;;;;;;;5038195;28;20041;-24
2022/10/05 06:24:15;;;;;;;6.90;3.30;;;;;;;;;;5038574;28;20087;-27
2022/10/05 06:27:06;;;;;;;12.82;3.60;;;;;;;;;;5038216;28;20068;-23
2022/10/05 06:29:47;;;;;;;20.08;4.28;;;;;;;;;;5037715;28;20104;-25
2022/10/05 06:32:26;;;;;;;32.85;4.97;;;;;;;;;;5038108;28;20080;-26
2022/10/05 06:35:00;;;;;;;10.80;3.50;;;;;;;;;;5037328;28;20033;-25
2022/10/05 06:37:32;;;;;;;12.85;3.40;;;;;;;;;;5038217;28;20045;-23
2022/10/05 06:40:16;;;;;;;37.10;4.50;;;;;;;;;;5038164;28;20051;-23
2022/10/05 06:42:47;;;;;;;15.80;2.80;;;;;;;;;;5038343;28;20021;-23
2022/10/05 06:45:16;;;;;;;8.27;3.10;;;;;;;;;;5037975;28;20086;-22
2022/10/05 06:47:46;;;;;;;9.60;3.45;;;;;;;;;;5038199;28;20033;-22
2022/10/05 06:50:18;;;;;;;9.48;3.15;;;;;;;;;;5037872;28;20096;-25
2022/10/05 06:53:02;;;;;;;12.95;3.35;;;;;;;;;;5037834;28;20104;-22
2022/10/05 06:55:28;;;;;;;7.32;3.17;;;;;;;;;;5037740;28;20030;-25
2022/10/05 06:58:19;;;;;;;13.05;3.40;;;;;;;;;;5037478;28;20041;-26
2022/10/05 07:00:52;;;;;;;8.23;3.28;;;;;;;;;;5037998;28;20042;-23
2022/10/05 07:03:18;;;;;;;25.30;6.30;;;;;;;;;;5037102;28;20042;-25
2022/10/05 07:05:44;;;;;;;30.67;5.40;;;;;;;;;;5036540;28;20331;-27
2022/10/05 07:08:13;;;;;;;21.15;4.30;;;;;;;;;;5037517;28;20411;-23
2022/10/05 07:10:56;;;;;;;12.73;4.13;;;;;;;;;;5037326;28;20457;-24
2022/10/05 07:13:41;;;;;;;11.35;4.10;;;;;;;;;;5037528;28;20030;-22
2022/10/05 07:16:14;;;;;;;10.05;3.10;;;;;;;;;;5037459;28;20057;-22
2022/10/05 07:18:46;;;;;;;11.20;4.00;;;;;;;;;;5037659;28;20029;-22
2022/10/05 07:21:23;;;;;;;13.00;3.83;;;;;;;;;;5037406;28;20088;-22
2022/10/05 07:23:53;;;;;;;18.55;5.70;;;;;;;;;;5037327;28;20017;-22
2022/10/05 07:26:27;;;;;;;10.90;3.65;;;;;;;;;;5037122;28;20049;-21
2022/10/05 07:29:12;;;;;;;21.77;4.60;;;;;;;;;;5036834;28;20109;-21
2022/10/05 07:31:53;;;;;;;16.63;3.65;;;;;;;;;;5036744;28;20481;-22
2022/10/05 07:34:22;;;;;;;13.02;5.00;;;;;;;;;;5037166;28;20450;-26
2022/10/05 07:40:04;;;;;;;15.85;4.93;;;;;;;;;;5037173;28;20047;-20
2022/10/05 07:42:35;;;;;;;9.73;3.15;;;;;;;;;;5036692;28;20458;-23
2022/10/05 07:45:09;;;;;;;8.90;3.47;;;;;;;;;;5036955;28;20021;-23
2022/10/05 07:47:37;;;;;;;18.95;4.28;;;;;;;;;;5036552;28;20030;-24
2022/10/05 07:50:19;;;;;;;20.35;5.38;;;;;;;;;;5036565;28;20095;-22
2022/10/05 07:52:52;;;;;;;18.88;4.32;;;;;;;;;;5036508;28;20052;-21
2022/10/05 07:55:22;;;;;;;12.57;4.35;;;;;;;;;;5036413;28;20026;-22
2022/10/05 07:58:07;;;;;;;21.35;4.70;;;;;;;;;;5036149;28;20033;-21
2022/10/05 08:00:46;;;;;;;24.33;3.83;;;;;;;;;;5036242;28;20036;-29
2022/10/05 08:03:48;;;;;;;13.02;3.20;;;;;;;;;;5036005;28;20052;-25
2022/10/05 08:06:26;;;;;;;14.65;3.88;;;;;;;;;;4975841;28;20030;-23
2022/10/05 08:08:56;;;;;;;12.32;3.60;;;;;;;;;;5029159;28;20065;-22
2022/10/05 08:11:52;;;;;;;15.73;3.42;;;;;;;;;;5036396;28;20025;-27
2022/10/05 08:14:23;;;;;;;11.52;4.43;;;;;;;;;;5023466;28;20045;-23
2022/10/05 08:16:52;;;;;;;14.38;4.05;;;;;;;;;;5036125;28;20367;-21
2022/10/05 08:19:21;;;;;;;12.70;3.88;;;;;;;;;;5036044;28;20455;-22
2022/10/05 08:21:55;;;;;;;11.13;3.53;;;;;;;;;;5035957;28;20104;-26
2022/10/05 08:24:41;;;;;;;18.83;3.92;;;;;;;;;;5036248;28;20109;-22
2022/10/05 08:27:16;;;;;;;16.48;3.58;;;;;;;;;;5036138;28;20025;-23
2022/10/05 08:30:01;;;;;;;10.32;3.60;;;;;;;;;;5035928;28;20458;-22
2022/10/05 08:32:43;;;;;;;29.08;5.95;;;;;;;;;;5035794;28;20041;-24
2022/10/05 08:35:21;;;;;;;22.27;4.65;;;;;;;;;;5036037;28;20026;-25
2022/10/05 08:37:48;;;;;;;20.70;4.70;;;;;;;;;;5035626;28;20369;-23
2022/10/05 08:40:20;;;;;;;21.25;3.88;;;;;;;;;;5035138;28;20041;-21
2022/10/05 08:42:49;;;;;;;17.63;3.58;;;;;;;;;;5035214;28;20030;-21
2022/10/05 08:45:29;;;;;;;29.33;4.20;;;;;;;;;;5035343;28;20033;-23
2022/10/05 08:47:56;;;;;;;18.30;4.80;;;;;;;;;;5035965;28;20126;-22
2022/10/05 08:50:31;;;;;;;27.23;3.47;;;;;;;;;;5035711;28;20040;-22
2022/10/05 08:53:30;;;;;;;10.50;3.88;;;;;;;;;;5035278;28;20060;-25
2022/10/05 08:56:31;;;;;;;22.17;7.25;;;;;;;;;;5002514;28;20076;-24
2022/10/05 08:58:58;;;;;;;;;;;;;;;;;;4975120;28;20118;-23
2022/10/05 09:01:36;;;;;;;16.40;4.28;;;;;;;;;;5023243;28;19909;-21
2022/10/05 09:04:14;;;;;;;16.65;4.03;;;;;;;;;;5034792;28;20061;-24
2022/10/05 09:06:52;;;;;;;10.68;3.95;;;;;;;;;;5035096;28;20053;-25
2022/10/05 09:09:18;;;;;;;9.85;3.42;;;;;;;;;;5035090;28;20420;-21
2022/10/05 09:11:48;;;;;;;13.88;3.47;;;;;;;;;;5034998;28;20021;-22
2022/10/05 09:14:21;;;;;;;11.35;3.40;;;;;;;;;;5035032;28;20067;-26
2022/10/05 09:16:47;;;;;;;37.40;6.05;;;;;;;;;;5034867;28;20021;-22
2022/10/05 09:19:22;;;;;;;53.85;6.70;;;;;;;;;;5034627;28;20379;-25
2022/10/05 09:21:48;;;;;;;29.15;6.22;;;;;;;;;;5034658;28;20036;-27
2022/10/05 09:24:14;;;;;;;27.83;4.70;;;;;;;;;;5035382;28;20017;-23
2022/10/05 09:26:41;;;;;;;20.60;4.35;;;;;;;;;;5034618;28;20065;-25
2022/10/05 09:29:25;;;;;;;15.07;4.40;;;;;;;;;;5035099;28;20401;-25
2022/10/05 09:32:10;;;;;;;37.45;7.00;;;;;;;;;;5035036;28;20346;-23
2022/10/05 09:35:00;;;;;;;28.15;6.53;;;;;;;;;;5035120;28;20026;-25
2022/10/05 09:37:43;;;;;;;21.70;5.28;;;;;;;;;;5034759;28;20111;-23
2022/10/05 09:40:10;;;;;;;22.63;3.88;;;;;;;;;;5034707;28;20101;-23
2022/10/05 09:42:55;;;;;;;15.50;4.03;;;;;;;;;;5034606;28;20092;-21
2022/10/05 09:45:47;;;;;;;37.95;5.05;;;;;;;;;;5033530;28;20033;-21
2022/10/05 09:48:25;;;;;;;43.38;4.68;;;;;;;;;;5034787;28;20338;-21
2022/10/05 09:50:58;;;;;;;11.85;4.07;;;;;;;;;;5034660;28;20324;-22
2022/10/05 09:53:43;;;;;;;25.15;4.68;;;;;;;;;;5033979;28;20065;-22
2022/10/05 09:56:12;;;;;;;15.35;4.38;;;;;;;;;;5034615;28;20037;-22
2022/10/05 09:58:49;;;;;;;32.30;5.35;;;;;;;;;;5034609;28;20032;-25
2022/10/05 10:01:15;;;;;;;37.17;5.32;;;;;;;;;;5033333;28;20033;-23
2022/10/05 10:04:01;;;;;;;16.17;4.40;;;;;;;;;;5033907;28;20129;-22
2022/10/05 10:06:45;;;;;;;24.23;5.38;;;;;;;;;;5034141;28;20030;-24
2022/10/05 10:09:30;;;;;;;25.73;4.47;;;;;;;;;;5033227;28;20064;-22
2022/10/05 10:12:06;;;;;;;71.15;6.40;;;;;;;;;;5033130;28;20030;-23
2022/10/05 10:14:51;;;;;;;63.53;8.27;;;;;;;;;;5034554;28;20036;-25
2022/10/05 10:17:23;;;;;;;39.28;6.60;;;;;;;;;;5033225;28;20041;-27
2022/10/05 10:20:09;;;;;;;44.30;5.72;;;;;;;;;;5033149;28;20036;-23
2022/10/05 10:22:45;;;;;;;35.25;4.93;;;;;;;;;;5034414;28;20025;-22
2022/10/05 10:25:18;;;;;;;34.70;7.22;;;;;;;;;;5034354;28;20056;-22
2022/10/05 10:27:56;;;;;;;28.48;5.22;;;;;;;;;;5034190;28;20063;-24
2022/10/05 10:30:41;;;;;;;31.00;6.22;;;;;;;;;;5034089;28;20092;-22
2022/10/05 10:33:31;;;;;;;19.60;4.45;;;;;;;;;;5034051;28;20053;-23
2022/10/05 10:36:11;;;;;;;11.32;3.88;;;;;;;;;;5033584;28;20478;-24
2022/10/05 10:38:57;;;;;;;20.25;4.65;;;;;;;;;;5034020;28;20044;-22
2022/10/05 10:41:32;;;;;;;30.23;4.43;;;;;;;;;;5034027;28;20064;-25
2022/10/05 10:44:01;;;;;;;15.68;4.05;;;;;;;;;;5034132;28;20032;-23
2022/10/05 10:46:31;;;;;;;16.83;4.03;;;;;;;;;;5033213;28;20026;-23
2022/10/05 10:49:15;;;;;;;32.97;4.00;;;;;;;;;;5034064;28;20040;-23
2022/10/05 10:51:51;;;;;;;24.52;4.40;;;;;;;;;;5034343;28;20029;-24
2022/10/05 10:54:33;;;;;;;19.02;5.78;;;;;;;;;;5034241;28;20045;-21
2022/10/05 10:57:05;;;;;;;26.35;4.72;;;;;;;;;;5034201;28;20036;-21
2022/10/05 10:59:50;;;;;;;17.33;3.90;;;;;;;;;;5032972;28;20056;-23
2022/10/05 11:02:28;;;;;;;28.35;5.40;;;;;;;;;;5034209;28;20029;-23
2022/10/05 11:05:07;;;;;;;18.05;4.13;;;;;;;;;;5036256;28;20074;-24
2022/10/05 11:07:37;;;;;;;27.63;6.78;;;;;;;;;;5037293;28;20094;-22
2022/10/05 11:10:38;;;;;;;85.75;9.63;;;;;;;;;;5037344;28;20106;-22
2022/10/05 11:13:27;;;;;;;136.27;14.65;;;;;;;;;;4976892;28;20415;-22
2022/10/05 11:15:59;;;;;;;145.23;19.27;;;;;;;;;;5007618;28;20052;-23
2022/10/05 11:18:25;;;;;;;101.35;11.30;;;;;;;;;;5037142;28;20110;-22
2022/10/05 11:20:54;;;;;;;101.82;11.23;;;;;;;;;;5036913;28;20086;-23
2022/10/05 11:23:33;;;;;;;42.17;6.47;;;;;;;;;;5036683;28;20036;-22
2022/10/05 11:26:18;;;;;;;48.70;6.05;;;;;;;;;;5036779;28;20158;-23
2022/10/05 11:29:02;;;;;;;42.25;5.40;;;;;;;;;;5037390;28;20465;-27
2022/10/05 11:31:29;;;;;;;29.92;6.47;;;;;;;;;;5036674;28;20037;-22
2022/10/05 11:34:05;;;;;;;39.53;5.82;;;;;;;;;;5036708;28;20053;-24
2022/10/05 11:36:41;;;;;;;54.50;6.70;;;;;;;;;;5036796;28;20091;-23
2022/10/05 11:39:13;;;;;;;35.45;5.05;;;;;;;;;;5037735;28;20366;-26
2022/10/05 11:41:58;;;;;;;42.75;5.25;;;;;;;;;;5037029;28;20092;-22
2022/10/05 11:44:33;;;;;;;32.47;6.03;;;;;;;;;;5036690;28;20029;-27
2022/10/05 11:46:59;;;;;;;37.80;4.85;;;;;;;;;;5036580;28;20417;-24
2022/10/05 11:49:44;;;;;;;24.70;5.45;;;;;;;;;;5036611;28;20436;-23
2022/10/05 11:52:16;;;;;;;52.50;7.05;;;;;;;;;;5036580;28;20354;-27
2022/10/05 11:55:02;;;;;;;55.33;6.53;;;;;;;;;;5036505;28;20041;-22
2022/10/05 11:57:36;;;;;;;62.47;10.25;;;;;;;;;;5036209;28;20029;-23
2022/10/05 12:00:02;;;;;;;46.78;6.70;;;;;;;;;;5036403;28;20112;-23
2022/10/05 12:02:37;;;;;;;34.78;5.90;;;;;;;;;;5036026;28;20048;-22
2022/10/05 12:05:03;;;;;;;53.17;7.32;;;;;;;;;;5036319;28;20029;-23
2022/10/05 12:07:39;;;;;;;44.80;5.63;;;;;;;;;;5036231;28;20036;-25
2022/10/05 12:10:31;;;;;;;33.42;6.15;;;;;;;;;;5036683;28;20049;-23
2022/10/05 12:13:07;;;;;;;44.08;7.38;;;;;;;;;;5036299;28;20045;-24
2022/10/05 12:15:52;;;;;;;34.72;7.05;;;;;;;;;;5036607;28;20349;-24
2022/10/05 12:18:21;;;;;;;48.72;6.53;;;;;;;;;;5035919;28;20029;-24
2022/10/05 12:20:47;;;;;;;40.28;6.60;;;;;;;;;;5035935;28;20051;-24
2022/10/05 12:23:13;;;;;;;47.33;5.88;;;;;;;;;;5035855;28;20080;-25
2022/10/05 12:25:44;;;;;;;51.53;6.28;;;;;;;;;;5035875;28;20025;-22
2022/10/05 12:28:12;;;;;;;46.22;5.75;;;;;;;;;;5036200;28;20037;-23
2022/10/05 12:30:53;;;;;;;53.63;7.10;;;;;;;;;;5036191;28;20060;-21
2022/10/05 12:33:19;;;;;;;;;;;;;;;;;;5036434;28;20091;-22
2022/10/05 12:35:57;;;;;;;42.03;7.57;;;;;;;;;;5035704;28;19909;-23
2022/10/05 12:38:28;;;;;;;43.42;5.18;;;;;;;;;;5035550;28;20136;-21
2022/10/05 12:40:54;;;;;;;;;;;;;;;;;;5036028;28;20040;-22
2022/10/05 12:43:35;;;;;;;41.78;5.97;;;;;;;;;;5035331;28;19917;-24
2022/10/05 12:46:01;;;;;;;30.40;5.40;;;;;;;;;;5035525;28;20037;-23
2022/10/05 12:48:28;;;;;;;46.83;5.50;;;;;;;;;;5035757;28;20029;-22
2022/10/05 12:51:03;;;;;;;23.95;5.28;;;;;;;;;;5035647;28;20025;-22
2022/10/05 12:53:38;;;;;;;18.85;4.78;;;;;;;;;;5035307;28;20111;-23
2022/10/05 12:56:07;;;;;;;52.78;7.05;;;;;;;;;;5035338;28;20029;-22
2022/10/05 12:58:53;;;;;;;32.03;6.80;;;;;;;;;;5035448;28;20441;-27
2022/10/05 13:01:19;;;;;;;31.42;4.43;;;;;;;;;;5034263;28;20500;-22
2022/10/05 13:03:50;;;;;;;32.55;5.55;;;;;;;;;;5034783;28;20053;-23
2022/10/05 13:06:29;;;;;;;35.15;5.78;;;;;;;;;;5035388;28;20021;-22
2022/10/05 13:08:59;;;;;;;43.08;5.97;;;;;;;;;;5035075;28;20026;-22
2022/10/05 13:11:46;;;;;;;51.93;6.13;;;;;;;;;;5035764;28;20037;-29
2022/10/05 13:14:22;;;;;;;33.90;5.35;;;;;;;;;;5034914;28;20070;-24
2022/10/05 13:16:58;;;;;;;34.00;5.95;;;;;;;;;;5035168;28;20082;-22
2022/10/05 13:19:24;;;;;;;48.38;8.23;;;;;;;;;;5035075;28;20025;-22
2022/10/05 13:21:58;;;;;;;26.55;5.80;;;;;;;;;;5034779;28;20026;-28
2022/10/05 13:24:45;;;;;;;26.00;5.07;;;;;;;;;;5035163;28;20028;-23
2022/10/05 13:27:29;;;;;;;40.72;5.05;;;;;;;;;;5004853;28;20052;-22
2022/10/05 13:30:02;;;;;;;37.25;4.90;;;;;;;;;;5034863;28;20095;-23
2022/10/05 13:32:37;;;;;;;24.08;4.97;;;;;;;;;;5034727;28;20026;-22
2022/10/05 13:35:42;;;;;;;33.00;5.50;;;;;;;;;;5035737;28;20099;-24
2022/10/05 13:38:16;;;;;;;27.85;6.00;;;;;;;;;;4974605;28;20061;-23
2022/10/05 13:40:54;;;;;;;21.10;4.38;;;;;;;;;;4974329;28;20037;-23
2022/10/05 13:43:32;;;;;;;23.05;4.40;;;;;;;;;;5011531;28;20034;-22
2022/10/05 13:46:06;;;;;;;23.38;4.35;;;;;;;;;;5035002;28;20025;-23
2022/10/05 13:48:51;;;;;;;24.15;4.88;;;;;;;;;;5034910;28;20033;-23
2022/10/05 13:51:46;;;;;;;25.33;5.50;;;;;;;;;;5034454;28;20041;-27
2022/10/05 13:54:27;;;;;;;36.53;5.47;;;;;;;;;;4981745;28;20038;-22
2022/10/05 13:56:53;;;;;;;;;;;;;;;;;;5034899;28;20108;-23
2022/10/05 13:59:25;;;;;;;36.80;4.72;;;;;;;;;;5034395;28;20329;-23
2022/10/05 14:01:58;;;;;;;17.02;3.35;;;;;;;;;;5034669;28;20104;-23
2022/10/05 14:04:27;;;;;;;19.83;5.03;;;;;;;;;;5034234;28;20056;-23
2022/10/05 14:06:53;;;;;;;19.77;4.15;;;;;;;;;;5034432;28;20045;-23
2022/10/05 14:09:20;;;;;;;30.17;5.55;;;;;;;;;;5034628;28;20037;-24
2022/10/05 14:12:02;;;;;;;31.67;6.20;;;;;;;;;;5034566;28;20029;-22
2022/10/05 14:14:29;;;;;;;28.95;4.20;;;;;;;;;;5034198;28;20040;-22
2022/10/05 14:16:56;;;;;;;34.15;4.88;;;;;;;;;;5034613;28;20030;-25
2022/10/05 14:19:23;;;;;;;23.33;3.78;;;;;;;;;;5034511;28;20041;-23
2022/10/05 14:21:54;;;;;;;27.63;6.00;;;;;;;;;;5034295;28;20091;-23
2022/10/05 14:24:20;;;;;;;;;;;;;;;;;;5034656;28;20044;-22
2022/10/05 14:26:53;;;;;;;27.77;5.50;;;;;;;;;;5034266;28;19962;-22
2022/10/05 14:29:23;;;;;;;75.80;11.95;;;;;;;;;;5034161;28;20036;-22
2022/10/05 14:31:54;;;;;;;44.22;5.47;;;;;;;;;;5033257;28;20030;-21
2022/10/05 14:34:28;;;;;;;39.40;5.95;;;;;;;;;;5034396;28;20099;-23
2022/10/05 14:37:01;;;;;;;38.60;6.93;;;;;;;;;;5034187;28;20080;-25
2022/10/05 14:39:28;;;;;;;26.15;4.90;;;;;;;;;;5035729;28;20044;-24
2022/10/05 14:41:54;;;;;;;16.08;4.18;;;;;;;;;;5037861;28;20087;-25
2022/10/05 14:44:23;;;;;;;28.55;4.47;;;;;;;;;;5037898;28;20102;-25
2022/10/05 14:46:53;;;;;;;29.42;4.63;;;;;;;;;;5038098;28;20025;-28
2022/10/05 14:49:35;;;;;;;28.73;4.55;;;;;;;;;;5038144;28;20540;-23
2022/10/05 14:52:22;;;;;;;17.20;3.63;;;;;;;;;;5037722;28;20045;-25
2022/10/05 14:54:48;;;;;;;22.48;4.25;;;;;;;;;;5037718;28;20040;-23
2022/10/05 14:57:17;;;;;;;25.70;4.85;;;;;;;;;;5036702;28;20474;-24
2022/10/05 15:00:16;;;;;;;15.50;3.80;;;;;;;;;;5037927;28;20030;-22
2022/10/05 15:02:43;;;;;;;26.05;4.05;;;;;;;;;;5004553;28;20200;-24
2022/10/05 15:05:25;;;;;;;22.33;6.35;;;;;;;;;;5037455;28;20025;-26
2022/10/05 15:07:56;;;;;;;25.90;4.35;;;;;;;;;;5037779;28;20026;-22
2022/10/05 15:10:31;;;;;;;19.05;4.18;;;;;;;;;;5037523;28;20029;-23
2022/10/05 15:13:08;;;;;;;20.33;4.93;;;;;;;;;;5037626;28;20029;-23
2022/10/05 15:15:38;;;;;;;26.77;4.97;;;;;;;;;;5037540;28;20367;-22
2022/10/05 15:18:27;;;;;;;17.38;4.07;;;;;;;;;;5037840;28;20029;-23
2022/10/05 15:21:12;;;;;;;11.65;3.45;;;;;;;;;;5029522;28;20044;-25
2022/10/05 15:24:04;;;;;;;19.73;4.65;;;;;;;;;;5037174;28;20061;-23
2022/10/05 15:26:45;;;;;;;13.60;3.55;;;;;;;;;;5034613;28;20482;-24